Time;durP1;ratioP1;P1;durP2;ratioP2;P2;SDS_P1;SDS_P2;PMS_P1;PMS_P2;Temp;Humidity;BMP_temperature;BMP_pressure;BME280_temperature;BME280_humidity;BME280_pressure;Samples;Min_cycle;Max_cycle;Signal;HPM_P1;HPM_P2
2022/09/11 00:02:31;;;;;;;18.58;11.35;;;;;;;;;;6288873;28;20123;-82
2022/09/11 00:05:38;;;;;;;19.40;11.35;;;;;;;;;;6286494;28;20041;-80
2022/09/11 00:08:40;;;;;;;20.85;11.75;;;;;;;;;;6287718;28;20037;-79
2022/09/11 00:11:42;;;;;;;17.95;11.77;;;;;;;;;;6290829;28;20060;-81
2022/09/11 00:14:44;;;;;;;19.60;11.75;;;;;;;;;;6281609;28;20041;-81
2022/09/11 00:17:45;;;;;;;18.95;11.27;;;;;;;;;;6291907;28;20048;-81
2022/09/11 00:20:49;;;;;;;21.02;12.30;;;;;;;;;;6284579;28;20050;-79
2022/09/11 00:23:51;;;;;;;17.17;11.07;;;;;;;;;;6284210;28;20051;-81
2022/09/11 00:26:53;;;;;;;19.98;12.35;;;;;;;;;;6284678;28;20124;-80
2022/09/11 00:29:55;;;;;;;17.95;11.02;;;;;;;;;;6289605;28;20166;-81
2022/09/11 00:32:57;;;;;;;20.48;11.60;;;;;;;;;;6265642;28;20064;-82
2022/09/11 00:36:02;;;;;;;22.60;12.88;;;;;;;;;;6291766;28;20100;-80
2022/09/11 00:39:04;;;;;;;22.13;12.55;;;;;;;;;;6262071;28;20043;-76
2022/09/11 00:42:07;;;;;;;25.70;13.82;;;;;;;;;;6292148;28;20052;-79
2022/09/11 00:45:24;;;;;;;21.75;12.80;;;;;;;;;;6278653;28;20056;-80
2022/09/11 00:48:30;;;;;;;22.00;12.40;;;;;;;;;;6274902;28;20048;-79
2022/09/11 00:51:36;;;;;;;22.02;12.38;;;;;;;;;;6294030;28;20040;-80
2022/09/11 00:54:48;;;;;;;24.40;13.48;;;;;;;;;;6278835;28;20049;-80
2022/09/11 00:57:58;;;;;;;23.45;12.73;;;;;;;;;;6288286;28;20048;-80
2022/09/11 01:01:01;;;;;;;22.80;12.95;;;;;;;;;;6281474;28;20045;-82
2022/09/11 01:04:03;;;;;;;;;;;;;;;;;;6284423;28;20081;-82
2022/09/11 01:07:05;;;;;;;23.40;12.65;;;;;;;;;;6278664;28;19921;-82
2022/09/11 01:10:09;;;;;;;23.15;13.73;;;;;;;;;;6274174;28;20053;-81
2022/09/11 01:13:31;;;;;;;24.65;13.73;;;;;;;;;;6279749;28;20059;-82
2022/09/11 01:16:36;;;;;;;23.60;13.40;;;;;;;;;;6267760;28;20071;-80
2022/09/11 01:20:08;;;;;;;22.65;12.77;;;;;;;;;;6274202;28;20044;-82
2022/09/11 01:23:44;;;;;;;26.50;13.57;;;;;;;;;;6280591;28;20041;-80
2022/09/11 01:27:06;;;;;;;24.17;13.50;;;;;;;;;;6278198;28;20090;-81
2022/09/11 01:30:12;;;;;;;25.20;13.45;;;;;;;;;;6258720;28;21278;-81
2022/09/11 01:33:27;;;;;;;23.73;13.35;;;;;;;;;;6274865;28;20392;-81
2022/09/11 01:36:37;;;;;;;25.60;13.23;;;;;;;;;;6254843;28;20044;-81
2022/09/11 01:39:45;;;;;;;23.77;13.18;;;;;;;;;;6274255;28;20056;-81
2022/09/11 01:42:51;;;;;;;24.40;12.85;;;;;;;;;;6278296;28;20045;-81
2022/09/11 01:45:55;;;;;;;28.70;13.25;;;;;;;;;;6281244;28;20166;-82
2022/09/11 01:49:11;;;;;;;27.67;13.70;;;;;;;;;;6261074;28;20499;-82
2022/09/11 01:52:26;;;;;;;28.70;13.15;;;;;;;;;;6281567;28;20056;-82
2022/09/11 01:55:35;;;;;;;34.72;15.45;;;;;;;;;;6280116;28;20052;-80
2022/09/11 01:58:39;;;;;;;27.85;14.13;;;;;;;;;;6272267;28;20537;-81
2022/09/11 02:01:50;;;;;;;29.67;14.10;;;;;;;;;;6239677;28;20044;-81
2022/09/11 02:05:16;;;;;;;30.17;13.85;;;;;;;;;;6277462;28;20049;-81
2022/09/11 02:08:26;;;;;;;30.27;14.85;;;;;;;;;;6263589;28;20128;-82
2022/09/11 02:11:32;;;;;;;29.70;13.75;;;;;;;;;;6276934;28;20047;-81
2022/09/11 02:14:40;;;;;;;26.08;13.88;;;;;;;;;;6279607;28;20045;-81
2022/09/11 02:17:58;;;;;;;26.60;13.60;;;;;;;;;;6256592;28;20041;-80
2022/09/11 02:21:02;;;;;;;27.95;13.82;;;;;;;;;;6273291;28;20041;-80
2022/09/11 02:24:04;;;;;;;24.73;13.57;;;;;;;;;;6281292;28;20054;-80
2022/09/11 02:27:09;;;;;;;27.20;14.88;;;;;;;;;;6274108;28;20518;-81
2022/09/11 02:30:12;;;;;;;26.67;13.98;;;;;;;;;;6232330;28;1079274;-80
2022/09/11 02:33:29;;;;;;;29.20;14.45;;;;;;;;;;6261042;28;20045;-80
2022/09/11 02:36:30;;;;;;;27.65;14.45;;;;;;;;;;6277797;28;20049;-81
2022/09/11 02:39:54;;;;;;;27.63;14.05;;;;;;;;;;6278906;28;20047;-81
2022/09/11 02:43:14;;;;;;;26.58;14.10;;;;;;;;;;6273163;28;20114;-81
2022/09/11 02:46:34;;;;;;;31.02;14.85;;;;;;;;;;6272595;28;20047;-80
2022/09/11 02:49:39;;;;;;;31.02;14.57;;;;;;;;;;6234011;28;20060;-81
2022/09/11 02:53:02;;;;;;;25.20;13.07;;;;;;;;;;6246413;28;20056;-81
2022/09/11 02:56:22;;;;;;;27.27;14.40;;;;;;;;;;6269619;28;20044;-80
2022/09/11 02:59:29;;;;;;;29.08;13.63;;;;;;;;;;6271595;28;20504;-81
2022/09/11 03:02:36;;;;;;;28.98;14.02;;;;;;;;;;6275927;28;20044;-80
2022/09/11 03:05:39;;;;;;;30.85;14.90;;;;;;;;;;6253600;28;20530;-81
2022/09/11 03:08:40;;;;;;;28.02;14.85;;;;;;;;;;6251389;28;20524;-81
2022/09/11 03:11:43;;;;;;;26.58;13.60;;;;;;;;;;6258333;28;20041;-81
2022/09/11 03:14:47;;;;;;;29.10;13.10;;;;;;;;;;6258502;28;20036;-80
2022/09/11 03:17:49;;;;;;;26.90;12.50;;;;;;;;;;6251254;28;20036;-82
2022/09/11 03:20:51;;;;;;;25.13;13.13;;;;;;;;;;6287636;28;20387;-80
2022/09/11 03:23:53;;;;;;;29.73;14.03;;;;;;;;;;6273798;28;20080;-81
2022/09/11 03:26:55;;;;;;;30.50;13.65;;;;;;;;;;6271309;28;20068;-81
2022/09/11 03:29:57;;;;;;;27.98;13.80;;;;;;;;;;6279214;28;20048;-80
2022/09/11 03:33:02;;;;;;;28.83;13.50;;;;;;;;;;6281995;28;20037;-81
2022/09/11 03:36:04;;;;;;;27.00;12.65;;;;;;;;;;6265078;28;20507;-78
2022/09/11 03:39:05;;;;;;;30.67;15.13;;;;;;;;;;6284745;28;20563;-79
2022/09/11 03:42:11;;;;;;;27.75;13.82;;;;;;;;;;6274663;28;20045;-81
2022/09/11 03:45:15;;;;;;;25.02;12.52;;;;;;;;;;6282709;28;20037;-79
2022/09/11 03:48:17;;;;;;;24.13;11.80;;;;;;;;;;6284042;28;20637;-80
2022/09/11 03:51:20;;;;;;;;;;;;;;;;;;6280155;28;20415;-81
2022/09/11 03:54:22;;;;;;;23.02;11.18;;;;;;;;;;6284141;28;19928;-81
2022/09/11 03:57:25;;;;;;;22.27;11.85;;;;;;;;;;6252012;28;20509;-80
2022/09/11 04:00:27;;;;;;;26.50;12.25;;;;;;;;;;6252674;28;20041;-81
2022/09/11 04:03:30;;;;;;;28.20;13.32;;;;;;;;;;6248942;28;20037;-80
2022/09/11 04:06:32;;;;;;;29.15;13.45;;;;;;;;;;6257558;28;20104;-80
2022/09/11 04:09:36;;;;;;;31.80;14.52;;;;;;;;;;6291554;28;20075;-81
2022/09/11 04:12:37;;;;;;;34.88;15.75;;;;;;;;;;6287147;28;20127;-79
2022/09/11 04:15:39;;;;;;;33.88;15.35;;;;;;;;;;6288652;28;20407;-79
2022/09/11 04:18:43;;;;;;;38.55;16.20;;;;;;;;;;6292569;28;20032;-81
2022/09/11 04:21:44;;;;;;;38.75;16.85;;;;;;;;;;6286118;28;20067;-80
2022/09/11 04:24:46;;;;;;;40.70;17.13;;;;;;;;;;6278296;28;20048;-79
2022/09/11 04:27:48;;;;;;;51.13;18.85;;;;;;;;;;6281894;28;20045;-77
2022/09/11 04:30:50;;;;;;;50.47;19.15;;;;;;;;;;6286358;28;20071;-77
2022/09/11 04:33:53;;;;;;;51.58;19.17;;;;;;;;;;6282552;28;20049;-80
2022/09/11 04:37:02;;;;;;;50.90;19.60;;;;;;;;;;6288029;28;20604;-78
2022/09/11 04:40:05;;;;;;;54.38;21.10;;;;;;;;;;6284467;28;20152;-77
2022/09/11 04:43:10;;;;;;;;;;;;;;;;;;6280941;28;20041;-79
2022/09/11 04:46:14;;;;;;;49.15;18.83;;;;;;;;;;6279269;28;19921;-78
2022/09/11 04:49:17;;;;;;;42.38;17.42;;;;;;;;;;6286432;28;20400;-79
2022/09/11 04:52:20;;;;;;;43.70;18.60;;;;;;;;;;6293056;28;20056;-79
2022/09/11 04:55:22;;;;;;;51.03;20.70;;;;;;;;;;6287848;28;20056;-79
2022/09/11 04:58:24;;;;;;;48.40;18.98;;;;;;;;;;6293512;28;20045;-77
2022/09/11 05:01:28;;;;;;;44.75;18.80;;;;;;;;;;6291255;28;20125;-77
2022/09/11 05:04:32;;;;;;;42.40;19.00;;;;;;;;;;6277913;28;20102;-77
2022/09/11 05:07:35;;;;;;;42.17;18.92;;;;;;;;;;6290027;28;20052;-80
2022/09/11 05:10:38;;;;;;;;;;;;;;;;;;6287109;28;20040;-79
2022/09/11 05:13:40;;;;;;;40.67;17.67;;;;;;;;;;6285133;28;20323;-78
2022/09/11 05:16:44;;;;;;;42.80;17.70;;;;;;;;;;6286439;28;20059;-77
2022/09/11 05:19:48;;;;;;;41.55;17.13;;;;;;;;;;6284147;28;20052;-79
2022/09/11 05:22:50;;;;;;;43.92;18.35;;;;;;;;;;6284674;28;20056;-80
2022/09/11 05:25:56;;;;;;;44.65;18.40;;;;;;;;;;6284895;28;20651;-78
2022/09/11 05:29:01;;;;;;;41.55;18.35;;;;;;;;;;6273744;28;20385;-79
2022/09/11 05:32:05;;;;;;;43.13;16.92;;;;;;;;;;6281343;28;20056;-78
2022/09/11 05:35:08;;;;;;;42.30;16.38;;;;;;;;;;6275086;28;20053;-79
2022/09/11 05:38:09;;;;;;;42.00;18.05;;;;;;;;;;6276422;28;20047;-79
2022/09/11 05:41:12;;;;;;;40.20;15.93;;;;;;;;;;6280861;28;20044;-80
2022/09/11 05:44:14;;;;;;;37.00;15.20;;;;;;;;;;6277226;28;20133;-80
2022/09/11 05:47:16;;;;;;;36.13;16.10;;;;;;;;;;6277582;28;20049;-79
2022/09/11 05:50:21;;;;;;;37.13;16.77;;;;;;;;;;6272192;28;20059;-79
2022/09/11 05:53:23;;;;;;;35.42;16.42;;;;;;;;;;6289844;28;20515;-79
2022/09/11 05:56:25;;;;;;;37.10;16.02;;;;;;;;;;6281324;28;20071;-77
2022/09/11 05:59:31;;;;;;;37.67;17.13;;;;;;;;;;6284805;28;20055;-78
2022/09/11 06:02:33;;;;;;;33.75;14.35;;;;;;;;;;6261499;28;20052;-79
2022/09/11 06:05:34;;;;;;;32.08;15.65;;;;;;;;;;6285864;28;20071;-79
2022/09/11 06:08:38;;;;;;;33.27;15.33;;;;;;;;;;6284765;28;20546;-80
2022/09/11 06:11:40;;;;;;;36.63;14.82;;;;;;;;;;6287103;28;20037;-78
2022/09/11 06:14:43;;;;;;;41.13;16.55;;;;;;;;;;6281728;28;20780;-78
2022/09/11 06:17:45;;;;;;;;;;;;;;;;;;6261042;28;20511;-79
2022/09/11 06:21:01;;;;;;;40.85;17.23;;;;;;;;;;6249873;28;19952;-78
2022/09/11 06:24:09;;;;;;;41.58;17.23;;;;;;;;;;6265634;28;20044;-78
2022/09/11 06:27:11;;;;;;;45.97;19.33;;;;;;;;;;6276661;28;20442;-79
2022/09/11 06:30:16;;;;;;;44.30;19.42;;;;;;;;;;6283815;28;20129;-79
2022/09/11 06:33:19;;;;;;;43.03;19.63;;;;;;;;;;6275027;28;20106;-79
2022/09/11 06:36:23;;;;;;;;;;;;;;;;;;6289670;28;20051;-79
2022/09/11 06:39:25;;;;;;;43.50;19.83;;;;;;;;;;6283484;28;19920;-80
2022/09/11 06:42:28;;;;;;;49.90;19.65;;;;;;;;;;6288825;28;20052;-76
2022/09/11 06:45:33;;;;;;;45.58;20.50;;;;;;;;;;6283728;28;20052;-78
2022/09/11 06:48:35;;;;;;;42.75;19.98;;;;;;;;;;6279208;28;20127;-81
2022/09/11 06:51:39;;;;;;;44.60;19.95;;;;;;;;;;6279441;28;20508;-81
2022/09/11 06:54:41;;;;;;;48.13;21.73;;;;;;;;;;6258527;28;20514;-82
2022/09/11 06:57:47;;;;;;;44.45;20.35;;;;;;;;;;6255662;28;20052;-80
2022/09/11 07:01:06;;;;;;;45.83;20.20;;;;;;;;;;6278933;28;20060;-80
2022/09/11 07:04:09;;;;;;;46.58;21.88;;;;;;;;;;6272712;28;20191;-79
2022/09/11 07:07:11;;;;;;;41.72;20.40;;;;;;;;;;6278968;28;20395;-80
2022/09/11 07:10:14;;;;;;;42.08;20.88;;;;;;;;;;6276505;28;20036;-79
2022/09/11 07:13:16;;;;;;;42.40;20.70;;;;;;;;;;6277755;28;20767;-80
2022/09/11 07:16:18;;;;;;;43.20;20.75;;;;;;;;;;6269675;28;20056;-80
2022/09/11 07:19:28;;;;;;;43.53;20.27;;;;;;;;;;6281338;28;20813;-81
2022/09/11 07:22:30;;;;;;;38.95;21.52;;;;;;;;;;6293890;28;20040;-81
2022/09/11 07:25:34;;;;;;;;;;;;;;;;;;6279727;28;20067;-79
2022/09/11 07:28:39;;;;;;;38.60;19.02;;;;;;;;;;6288134;28;19924;-79
2022/09/11 07:31:41;;;;;;;42.90;20.20;;;;;;;;;;6269337;28;20040;-81
2022/09/11 07:34:46;;;;;;;38.45;20.02;;;;;;;;;;6284861;28;20037;-80
2022/09/11 07:37:48;;;;;;;40.33;20.92;;;;;;;;;;6280117;28;20055;-79
2022/09/11 07:40:53;;;;;;;41.38;21.08;;;;;;;;;;6254979;28;20074;-80
2022/09/11 07:44:02;;;;;;;40.63;20.15;;;;;;;;;;6267815;28;20052;-80
2022/09/11 07:47:05;;;;;;;38.97;20.08;;;;;;;;;;6248618;28;20040;-79
2022/09/11 07:50:16;;;;;;;40.70;20.30;;;;;;;;;;6277018;28;20049;-79
2022/09/11 07:53:18;;;;;;;39.00;19.60;;;;;;;;;;6265620;28;20049;-80
2022/09/11 07:56:23;;;;;;;41.40;20.27;;;;;;;;;;6276281;28;20673;-80
2022/09/11 07:59:26;;;;;;;39.22;20.58;;;;;;;;;;6274742;28;20048;-79
2022/09/11 08:02:27;;;;;;;40.17;19.83;;;;;;;;;;6272518;28;20049;-79
2022/09/11 08:05:29;;;;;;;35.37;18.70;;;;;;;;;;6282535;28;20047;-80
2022/09/11 08:08:33;;;;;;;36.45;18.75;;;;;;;;;;6284110;28;20048;-81
2022/09/11 08:11:41;;;;;;;32.05;17.33;;;;;;;;;;6279631;28;20044;-80
2022/09/11 08:14:44;;;;;;;32.08;17.20;;;;;;;;;;6287101;28;20098;-79
2022/09/11 08:17:51;;;;;;;30.08;17.08;;;;;;;;;;6275798;28;20174;-81
2022/09/11 08:21:00;;;;;;;29.33;17.05;;;;;;;;;;6286002;28;20518;-81
2022/09/11 08:24:02;;;;;;;29.98;17.02;;;;;;;;;;6270054;28;20106;-81
2022/09/11 08:27:05;;;;;;;28.30;17.00;;;;;;;;;;6279512;28;20071;-79
2022/09/11 08:30:11;;;;;;;28.35;16.40;;;;;;;;;;6279346;28;20193;-82
2022/09/11 08:33:13;;;;;;;26.40;15.68;;;;;;;;;;6278721;28;20044;-80
2022/09/11 08:36:15;;;;;;;28.08;16.02;;;;;;;;;;6274974;28;20049;-81
2022/09/11 08:39:19;;;;;;;27.13;15.88;;;;;;;;;;6260196;28;20132;-80
2022/09/11 08:42:26;;;;;;;19.70;12.30;;;;;;;;;;6259324;28;20127;-79
2022/09/11 08:45:34;;;;;;;21.63;13.32;;;;;;;;;;6281098;28;20484;-80
2022/09/11 08:49:03;;;;;;;21.75;12.68;;;;;;;;;;6283372;28;20040;-80
2022/09/11 08:52:05;;;;;;;22.75;12.23;;;;;;;;;;6277110;28;20041;-79
2022/09/11 08:55:12;;;;;;;19.35;12.30;;;;;;;;;;6275927;28;20048;-82
2022/09/11 08:58:33;;;;;;;19.92;11.65;;;;;;;;;;6273902;28;20040;-80
2022/09/11 09:02:00;;;;;;;18.35;11.77;;;;;;;;;;6278276;28;20087;-81
2022/09/11 09:05:26;;;;;;;16.92;10.70;;;;;;;;;;6261123;28;20040;-81
2022/09/11 09:08:36;;;;;;;20.58;11.43;;;;;;;;;;6290825;28;20045;-78
2022/09/11 09:11:58;;;;;;;15.55;10.57;;;;;;;;;;6278496;28;20041;-78
2022/09/11 09:15:03;;;;;;;14.65;10.35;;;;;;;;;;6270401;28;20653;-78
2022/09/11 09:18:15;;;;;;;20.38;12.40;;;;;;;;;;6274855;28;20055;-78
2022/09/11 09:21:24;;;;;;;16.33;10.68;;;;;;;;;;6257710;28;20128;-77
2022/09/11 09:24:31;;;;;;;18.75;11.30;;;;;;;;;;6277476;28;20045;-78
2022/09/11 09:27:35;;;;;;;20.23;11.80;;;;;;;;;;6278675;28;20041;-80
2022/09/11 09:30:45;;;;;;;19.20;10.57;;;;;;;;;;6280672;28;20524;-79
2022/09/11 09:33:53;;;;;;;15.70;10.80;;;;;;;;;;6272179;28;20040;-79
2022/09/11 09:37:05;;;;;;;18.73;11.00;;;;;;;;;;6280857;28;20656;-79
2022/09/11 09:40:09;;;;;;;18.70;12.18;;;;;;;;;;6276868;28;20542;-79
2022/09/11 09:43:27;;;;;;;20.17;12.35;;;;;;;;;;6282266;28;20139;-80
2022/09/11 09:46:58;;;;;;;24.45;13.00;;;;;;;;;;6276630;28;20068;-80
2022/09/11 09:50:01;;;;;;;33.20;17.33;;;;;;;;;;6261583;28;20050;-80
2022/09/11 09:53:26;;;;;;;22.67;12.45;;;;;;;;;;6281798;28;20689;-81
2022/09/11 09:56:30;;;;;;;26.15;12.05;;;;;;;;;;6269149;28;20175;-80
2022/09/11 10:00:07;;;;;;;15.90;11.45;;;;;;;;;;6274849;28;20483;-80
2022/09/11 10:03:21;;;;;;;39.90;16.38;;;;;;;;;;6199387;28;20067;-80
2022/09/11 10:06:23;;;;;;;24.77;12.60;;;;;;;;;;6282128;28;20538;-79
2022/09/11 10:09:28;;;;;;;21.83;11.80;;;;;;;;;;6251835;28;20512;-80
2022/09/11 10:12:31;;;;;;;22.23;12.07;;;;;;;;;;6255634;28;20450;-79
2022/09/11 10:15:37;;;;;;;24.60;11.05;;;;;;;;;;6261747;28;20044;-79
2022/09/11 10:18:41;;;;;;;12.68;8.50;;;;;;;;;;6268558;28;20052;-79
2022/09/11 10:21:43;;;;;;;13.43;8.05;;;;;;;;;;6278811;28;20108;-81
2022/09/11 10:24:52;;;;;;;13.27;8.43;;;;;;;;;;6264305;28;20044;-80
2022/09/11 10:28:02;;;;;;;11.07;8.07;;;;;;;;;;6278051;28;20044;-80
2022/09/11 10:31:04;;;;;;;13.07;8.68;;;;;;;;;;6278455;28;20660;-79
2022/09/11 10:34:13;;;;;;;11.27;7.57;;;;;;;;;;6278257;28;20052;-79
2022/09/11 10:37:25;;;;;;;10.25;7.65;;;;;;;;;;6264479;28;20063;-79
2022/09/11 10:40:27;;;;;;;10.45;7.50;;;;;;;;;;6281427;28;20123;-78
2022/09/11 10:43:46;;;;;;;10.65;7.38;;;;;;;;;;6274994;28;20051;-79
2022/09/11 10:47:31;;;;;;;8.80;6.50;;;;;;;;;;6270250;28;20507;-79
2022/09/11 10:50:33;;;;;;;9.85;6.55;;;;;;;;;;6275348;28;20036;-78
2022/09/11 10:53:56;;;;;;;8.57;6.00;;;;;;;;;;6270858;28;20055;-79
2022/09/11 10:57:26;;;;;;;10.55;6.68;;;;;;;;;;6271570;28;20037;-79
2022/09/11 11:00:29;;;;;;;10.25;6.50;;;;;;;;;;6270435;28;20045;-79
2022/09/11 11:03:31;;;;;;;8.88;6.32;;;;;;;;;;6273905;28;20058;-79
2022/09/11 11:07:01;;;;;;;9.30;6.35;;;;;;;;;;6272272;28;20044;-77
2022/09/11 11:10:44;;;;;;;8.10;6.10;;;;;;;;;;6271755;28;20040;-78
2022/09/11 11:13:45;;;;;;;9.27;6.30;;;;;;;;;;6224878;28;20056;-80
2022/09/11 11:17:11;;;;;;;9.13;6.50;;;;;;;;;;6280912;28;20333;-79
2022/09/11 11:20:32;;;;;;;8.98;6.30;;;;;;;;;;6263257;28;20772;-80
2022/09/11 11:24:00;;;;;;;7.95;5.68;;;;;;;;;;6265717;28;20071;-79
2022/09/11 11:27:27;;;;;;;9.07;5.88;;;;;;;;;;6266872;28;20041;-78
2022/09/11 11:30:39;;;;;;;7.13;5.22;;;;;;;;;;6275338;28;20057;-80
2022/09/11 11:34:32;;;;;;;11.95;6.88;;;;;;;;;;6274221;28;20415;-79
2022/09/11 11:37:40;;;;;;;8.02;6.35;;;;;;;;;;6175447;28;20048;-79
2022/09/11 11:40:48;;;;;;;10.63;6.63;;;;;;;;;;6275906;28;20044;-77
2022/09/11 11:43:52;;;;;;;8.73;5.82;;;;;;;;;;6275595;28;20092;-78
2022/09/11 11:46:58;;;;;;;9.40;6.07;;;;;;;;;;6282136;28;20044;-79
2022/09/11 11:50:06;;;;;;;12.30;7.45;;;;;;;;;;6282801;28;20050;-79
2022/09/11 11:53:34;;;;;;;8.18;6.57;;;;;;;;;;6280406;28;20064;-79
2022/09/11 11:56:46;;;;;;;8.07;5.72;;;;;;;;;;6275002;28;20046;-79
2022/09/11 11:59:47;;;;;;;7.38;5.50;;;;;;;;;;6278785;28;20156;-79
2022/09/11 12:02:56;;;;;;;8.02;5.82;;;;;;;;;;6273094;28;21402;-79
2022/09/11 12:05:58;;;;;;;7.95;5.30;;;;;;;;;;6277907;28;20419;-79
2022/09/11 12:09:02;;;;;;;5.50;4.53;;;;;;;;;;6277796;28;20041;-80
2022/09/11 12:12:06;;;;;;;7.05;5.25;;;;;;;;;;6287260;28;20044;-79
2022/09/11 12:15:26;;;;;;;6.47;5.22;;;;;;;;;;6271546;28;20098;-78
2022/09/11 12:18:28;;;;;;;12.50;6.63;;;;;;;;;;6276883;28;20072;-79
2022/09/11 12:21:30;;;;;;;9.50;6.20;;;;;;;;;;6273866;28;20037;-79
2022/09/11 12:24:53;;;;;;;8.43;5.65;;;;;;;;;;6276967;28;20454;-79
2022/09/11 12:28:08;;;;;;;8.10;5.65;;;;;;;;;;6275475;28;20503;-80
2022/09/11 12:31:15;;;;;;;6.28;5.50;;;;;;;;;;6265802;28;20128;-79
2022/09/11 12:34:25;;;;;;;8.05;5.25;;;;;;;;;;6275811;28;20117;-79
2022/09/11 12:37:33;;;;;;;8.60;5.97;;;;;;;;;;6277869;28;20048;-79
2022/09/11 12:41:00;;;;;;;8.52;5.45;;;;;;;;;;6280462;28;20040;-79
2022/09/11 12:44:03;;;;;;;9.40;6.03;;;;;;;;;;6275566;28;20739;-78
2022/09/11 12:47:10;;;;;;;12.00;6.68;;;;;;;;;;6280314;28;20041;-79
2022/09/11 12:50:20;;;;;;;9.57;6.82;;;;;;;;;;6283162;28;20091;-79
2022/09/11 12:53:27;;;;;;;13.52;7.57;;;;;;;;;;6264219;28;20474;-79
2022/09/11 12:56:35;;;;;;;9.63;6.80;;;;;;;;;;6273571;28;20055;-79
2022/09/11 12:59:41;;;;;;;9.63;6.18;;;;;;;;;;6281769;28;20640;-78
2022/09/11 13:02:49;;;;;;;8.50;6.07;;;;;;;;;;6274521;28;20524;-79
2022/09/11 13:06:02;;;;;;;8.75;6.72;;;;;;;;;;6282836;28;20574;-79
2022/09/11 13:09:04;;;;;;;10.50;6.28;;;;;;;;;;6278972;28;20180;-78
2022/09/11 13:12:15;;;;;;;10.95;5.57;;;;;;;;;;6283735;28;20066;-78
2022/09/11 13:15:35;;;;;;;9.00;5.93;;;;;;;;;;6265805;28;20151;-78
2022/09/11 13:18:42;;;;;;;8.57;6.07;;;;;;;;;;6254741;28;20427;-78
2022/09/11 13:21:44;;;;;;;8.20;5.65;;;;;;;;;;6274674;28;20040;-79
2022/09/11 13:24:47;;;;;;;9.45;5.75;;;;;;;;;;6274459;28;20218;-80
2022/09/11 13:27:51;;;;;;;7.85;5.85;;;;;;;;;;6267383;28;20422;-79
2022/09/11 13:31:02;;;;;;;9.90;6.18;;;;;;;;;;6270777;28;20070;-78
2022/09/11 13:34:20;;;;;;;9.52;6.22;;;;;;;;;;6270736;28;20052;-79
2022/09/11 13:37:44;;;;;;;9.45;6.32;;;;;;;;;;6272716;28;20052;-79
2022/09/11 13:40:51;;;;;;;9.77;6.40;;;;;;;;;;6270775;28;20051;-79
2022/09/11 13:43:55;;;;;;;7.20;5.28;;;;;;;;;;6272112;28;20045;-79
2022/09/11 13:46:59;;;;;;;9.82;5.75;;;;;;;;;;6264164;28;20055;-79
2022/09/11 13:50:05;;;;;;;8.73;6.35;;;;;;;;;;6269762;28;20037;-78
2022/09/11 13:53:08;;;;;;;7.03;5.53;;;;;;;;;;6275568;28;20521;-79
2022/09/11 13:56:50;;;;;;;7.95;5.80;;;;;;;;;;6270959;28;20058;-78
2022/09/11 13:59:55;;;;;;;6.68;5.10;;;;;;;;;;6263296;28;20573;-78
2022/09/11 14:02:59;;;;;;;5.82;4.10;;;;;;;;;;6261885;28;20040;-78
2022/09/11 14:06:07;;;;;;;5.82;4.60;;;;;;;;;;6273856;28;20174;-78
2022/09/11 14:09:16;;;;;;;7.65;5.50;;;;;;;;;;6270021;28;20843;-78
2022/09/11 14:12:19;;;;;;;5.40;4.25;;;;;;;;;;6264632;28;20041;-79
2022/09/11 14:15:54;;;;;;;6.82;4.82;;;;;;;;;;6268746;28;20055;-79
2022/09/11 14:19:06;;;;;;;5.47;4.60;;;;;;;;;;6253816;28;20052;-78
2022/09/11 14:22:26;;;;;;;6.10;4.37;;;;;;;;;;6272998;28;20879;-79
2022/09/11 14:25:28;;;;;;;4.55;4.13;;;;;;;;;;6275295;28;20098;-78
2022/09/11 14:28:40;;;;;;;4.50;3.88;;;;;;;;;;6259367;28;20041;-77
2022/09/11 14:31:45;;;;;;;5.57;4.60;;;;;;;;;;6273936;28;20052;-78
2022/09/11 14:34:46;;;;;;;4.93;3.90;;;;;;;;;;6264319;28;20041;-77
2022/09/11 14:37:49;;;;;;;4.87;4.00;;;;;;;;;;6270565;28;20044;-78
2022/09/11 14:40:56;;;;;;;5.80;4.28;;;;;;;;;;6268289;28;20048;-78
2022/09/11 14:43:58;;;;;;;6.43;4.10;;;;;;;;;;6268509;28;20049;-79
2022/09/11 14:46:59;;;;;;;4.80;4.10;;;;;;;;;;6273132;28;20135;-78
2022/09/11 14:50:01;;;;;;;5.37;4.53;;;;;;;;;;6268496;28;20052;-80
2022/09/11 14:53:03;;;;;;;5.60;4.40;;;;;;;;;;6272892;28;20140;-78
2022/09/11 14:56:05;;;;;;;6.67;4.70;;;;;;;;;;6271452;28;20230;-79
2022/09/11 14:59:06;;;;;;;6.35;4.95;;;;;;;;;;6274601;28;20462;-80
2022/09/11 15:02:16;;;;;;;6.33;4.47;;;;;;;;;;6274733;28;20045;-77
2022/09/11 15:05:21;;;;;;;5.63;4.82;;;;;;;;;;6269639;28;20055;-79
2022/09/11 15:08:24;;;;;;;6.47;4.38;;;;;;;;;;6273805;28;20053;-79
2022/09/11 15:11:25;;;;;;;;;;;;;;;;;;6278843;28;20048;-79
2022/09/11 15:14:27;;;;;;;7.45;5.25;;;;;;;;;;6275414;28;19943;-80
2022/09/11 15:17:49;;;;;;;7.80;5.10;;;;;;;;;;6291453;28;20048;-78
2022/09/11 15:20:50;;;;;;;5.95;5.13;;;;;;;;;;6273815;28;20058;-79
2022/09/11 15:23:54;;;;;;;5.78;5.10;;;;;;;;;;6276403;28;20044;-79
2022/09/11 15:26:55;;;;;;;6.28;4.38;;;;;;;;;;6275464;28;20622;-79
2022/09/11 15:29:57;;;;;;;5.33;4.27;;;;;;;;;;6279390;28;20440;-78
2022/09/11 15:32:59;;;;;;;5.40;3.90;;;;;;;;;;6261829;28;20044;-78
2022/09/11 15:36:03;;;;;;;4.23;3.83;;;;;;;;;;6274205;28;20060;-79
2022/09/11 15:39:06;;;;;;;5.45;4.20;;;;;;;;;;6271319;28;20499;-79
2022/09/11 15:42:08;;;;;;;6.38;4.10;;;;;;;;;;6276101;28;20062;-79
2022/09/11 15:45:11;;;;;;;4.55;4.03;;;;;;;;;;6279294;28;20129;-78
2022/09/11 15:48:13;;;;;;;5.72;4.03;;;;;;;;;;6272895;28;20090;-78
2022/09/11 15:51:18;;;;;;;5.20;3.75;;;;;;;;;;6274190;28;20052;-79
2022/09/11 15:54:22;;;;;;;4.18;3.47;;;;;;;;;;6262617;28;20061;-78
2022/09/11 15:57:24;;;;;;;4.88;4.03;;;;;;;;;;6272644;28;20052;-78
2022/09/11 16:00:26;;;;;;;5.10;4.05;;;;;;;;;;6260031;28;20534;-79
2022/09/11 16:03:31;;;;;;;4.10;3.70;;;;;;;;;;6273987;28;20040;-79
2022/09/11 16:06:37;;;;;;;5.03;3.90;;;;;;;;;;6274624;28;20053;-78
2022/09/11 16:09:39;;;;;;;3.78;3.47;;;;;;;;;;6273188;28;20048;-78
2022/09/11 16:12:41;;;;;;;4.73;4.27;;;;;;;;;;6274757;28;20496;-79
2022/09/11 16:15:43;;;;;;;4.73;3.97;;;;;;;;;;6272598;28;20048;-79
2022/09/11 16:18:48;;;;;;;5.05;4.10;;;;;;;;;;6272360;28;20048;-79
2022/09/11 16:21:50;;;;;;;5.37;4.40;;;;;;;;;;6274190;28;20104;-79
2022/09/11 16:24:52;;;;;;;5.38;4.32;;;;;;;;;;6265191;28;20044;-78
2022/09/11 16:27:56;;;;;;;4.22;3.83;;;;;;;;;;6274947;28;20220;-79
2022/09/11 16:30:57;;;;;;;5.13;4.10;;;;;;;;;;6275525;28;20049;-79
2022/09/11 16:34:02;;;;;;;5.15;4.30;;;;;;;;;;6277314;28;20512;-79
2022/09/11 16:37:04;;;;;;;6.13;4.95;;;;;;;;;;6268873;28;20048;-80
2022/09/11 16:40:07;;;;;;;5.93;4.80;;;;;;;;;;6271988;28;20033;-79
2022/09/11 16:43:08;;;;;;;;;;;;;;;;;;6276318;28;20052;-78
2022/09/11 16:46:12;;;;;;;5.20;3.90;;;;;;;;;;6276089;28;19978;-79
2022/09/11 16:49:16;;;;;;;5.18;4.40;;;;;;;;;;6257669;28;20149;-80
2022/09/11 16:52:18;;;;;;;5.97;4.43;;;;;;;;;;6283284;28;20051;-80
2022/09/11 16:55:20;;;;;;;5.53;4.38;;;;;;;;;;6271048;28;20057;-80
2022/09/11 16:58:23;;;;;;;5.45;4.47;;;;;;;;;;6288707;28;20040;-80
2022/09/11 17:01:26;;;;;;;4.95;4.45;;;;;;;;;;6284635;28;20063;-80
2022/09/11 17:04:27;;;;;;;5.55;4.88;;;;;;;;;;6280355;28;20132;-80
2022/09/11 17:07:29;;;;;;;6.53;4.15;;;;;;;;;;6275174;28;20365;-80
2022/09/11 17:10:31;;;;;;;6.97;3.95;;;;;;;;;;6279545;28;20049;-80
2022/09/11 17:13:33;;;;;;;4.38;3.97;;;;;;;;;;6282658;28;20063;-80
2022/09/11 17:16:35;;;;;;;8.38;4.47;;;;;;;;;;6254558;28;20231;-79
2022/09/11 17:19:36;;;;;;;5.38;4.30;;;;;;;;;;6256287;28;20124;-79
2022/09/11 17:22:38;;;;;;;5.30;4.30;;;;;;;;;;6265130;28;20052;-79
2022/09/11 17:25:40;;;;;;;6.05;4.22;;;;;;;;;;6255013;28;20076;-79
2022/09/11 17:28:46;;;;;;;5.47;4.80;;;;;;;;;;6275745;28;20133;-80
2022/09/11 17:31:47;;;;;;;8.00;4.32;;;;;;;;;;6289205;28;20458;-79
2022/09/11 17:35:08;;;;;;;6.13;4.60;;;;;;;;;;6274029;28;20052;-79
2022/09/11 17:38:10;;;;;;;5.72;4.45;;;;;;;;;;6278601;28;20081;-79
2022/09/11 17:41:13;;;;;;;7.70;4.75;;;;;;;;;;6283315;28;20053;-78
2022/09/11 17:44:15;;;;;;;6.43;4.57;;;;;;;;;;6275640;28;20044;-78
2022/09/11 17:47:18;;;;;;;5.82;4.50;;;;;;;;;;6273209;28;20050;-79
2022/09/11 17:50:19;;;;;;;7.82;5.55;;;;;;;;;;6266077;28;20100;-80
2022/09/11 17:53:21;;;;;;;9.13;6.15;;;;;;;;;;6266378;28;20156;-79
2022/09/11 17:56:31;;;;;;;6.88;4.95;;;;;;;;;;6268286;28;20084;-80
2022/09/11 17:59:33;;;;;;;7.32;4.63;;;;;;;;;;6273203;28;20177;-78
2022/09/11 18:02:35;;;;;;;6.00;4.53;;;;;;;;;;6274624;28;20071;-78
2022/09/11 18:05:41;;;;;;;6.68;4.65;;;;;;;;;;6289516;28;20044;-80
2022/09/11 18:08:45;;;;;;;8.15;5.00;;;;;;;;;;6286139;28;20533;-79
2022/09/11 18:11:49;;;;;;;7.25;4.85;;;;;;;;;;6283314;28;20048;-78
2022/09/11 18:14:54;;;;;;;5.97;4.80;;;;;;;;;;6291408;28;20760;-80
2022/09/11 18:17:56;;;;;;;7.00;5.13;;;;;;;;;;6291521;28;20052;-78
2022/09/11 18:21:03;;;;;;;5.63;4.75;;;;;;;;;;6282209;28;20051;-79
2022/09/11 18:24:06;;;;;;;6.45;4.70;;;;;;;;;;6274552;28;20041;-77
2022/09/11 18:27:11;;;;;;;7.15;4.93;;;;;;;;;;6285029;28;20634;-79